Terminal Aerodrome Forecast
Issued by NWS Topeka, KS

Home | Current Version | Previous Version | Graphics & Text | Print | Product List | Glossary On
Versions: 1 2 3 4 5 6 7 8 9 10 11 12 13 14
000
FTUS43 KTOP 041120
TAFTOP
TAF
KTOP 041120Z 0412/0512 10005KT P6SM SCT060 BKN200
     FM042100 17008KT 5SM TSRA SCT050CB BKN150
     FM050600 13005KT 4SM TSRA SCT010 BKN040CB=

USA.gov is the U.S. government's official web portal to all federal, state and local government web resources and services.